sensor_id;sensor_type;location;lat;lon;timestamp;P1;durP1;ratioP1;P2;durP2;ratioP2
51987;SDS011;38003;52.012;4.346;2023-05-20T00:01:32;7.47;;;4.03;;
51987;SDS011;38003;52.012;4.346;2023-05-20T00:04:01;9.10;;;3.97;;
51987;SDS011;38003;52.012;4.346;2023-05-20T00:06:29;6.93;;;3.63;;
51987;SDS011;38003;52.012;4.346;2023-05-20T00:08:58;7.83;;;4.00;;
51987;SDS011;38003;52.012;4.346;2023-05-20T00:11:27;9.80;;;3.53;;
51987;SDS011;38003;52.012;4.346;2023-05-20T00:13:55;9.53;;;3.90;;
51987;SDS011;38003;52.012;4.346;2023-05-20T00:16:23;6.10;;;3.83;;
51987;SDS011;38003;52.012;4.346;2023-05-20T00:18:53;9.03;;;3.70;;
51987;SDS011;38003;52.012;4.346;2023-05-20T00:21:22;6.10;;;3.93;;
51987;SDS011;38003;52.012;4.346;2023-05-20T00:23:50;9.90;;;3.93;;
51987;SDS011;38003;52.012;4.346;2023-05-20T00:26:18;8.57;;;3.97;;
51987;SDS011;38003;52.012;4.346;2023-05-20T00:28:47;8.37;;;3.50;;
51987;SDS011;38003;52.012;4.346;2023-05-20T00:31:15;8.17;;;4.10;;
51987;SDS011;38003;52.012;4.346;2023-05-20T00:33:44;6.10;;;4.00;;
51987;SDS011;38003;52.012;4.346;2023-05-20T00:36:13;5.77;;;3.70;;
51987;SDS011;38003;52.012;4.346;2023-05-20T00:38:41;7.60;;;4.07;;
51987;SDS011;38003;52.012;4.346;2023-05-20T00:41:10;9.50;;;3.97;;
51987;SDS011;38003;52.012;4.346;2023-05-20T00:43:38;7.63;;;3.60;;
51987;SDS011;38003;52.012;4.346;2023-05-20T00:46:06;6.07;;;3.80;;
51987;SDS011;38003;52.012;4.346;2023-05-20T00:48:37;8.73;;;3.90;;
51987;SDS011;38003;52.012;4.346;2023-05-20T00:51:07;8.53;;;4.10;;
51987;SDS011;38003;52.012;4.346;2023-05-20T00:53:36;6.87;;;3.93;;
51987;SDS011;38003;52.012;4.346;2023-05-20T00:56:05;8.03;;;4.00;;
51987;SDS011;38003;52.012;4.346;2023-05-20T00:58:34;7.27;;;4.10;;
51987;SDS011;38003;52.012;4.346;2023-05-20T01:01:03;9.33;;;4.33;;
51987;SDS011;38003;52.012;4.346;2023-05-20T01:03:32;8.67;;;3.90;;
51987;SDS011;38003;52.012;4.346;2023-05-20T01:06:01;9.67;;;4.27;;
51987;SDS011;38003;52.012;4.346;2023-05-20T01:08:29;7.60;;;3.87;;
51987;SDS011;38003;52.012;4.346;2023-05-20T01:10:59;8.70;;;4.27;;
51987;SDS011;38003;52.012;4.346;2023-05-20T01:13:32;8.73;;;4.17;;
51987;SDS011;38003;52.012;4.346;2023-05-20T01:16:02;8.77;;;4.30;;
51987;SDS011;38003;52.012;4.346;2023-05-20T01:18:30;8.20;;;4.20;;
51987;SDS011;38003;52.012;4.346;2023-05-20T01:21:00;7.27;;;4.40;;
51987;SDS011;38003;52.012;4.346;2023-05-20T01:23:36;8.67;;;4.53;;
51987;SDS011;38003;52.012;4.346;2023-05-20T01:26:05;11.23;;;4.47;;
51987;SDS011;38003;52.012;4.346;2023-05-20T01:28:33;7.97;;;4.23;;
51987;SDS011;38003;52.012;4.346;2023-05-20T01:31:04;8.00;;;4.70;;
51987;SDS011;38003;52.012;4.346;2023-05-20T01:33:33;7.43;;;4.43;;
51987;SDS011;38003;52.012;4.346;2023-05-20T01:36:02;8.43;;;4.57;;
51987;SDS011;38003;52.012;4.346;2023-05-20T01:38:34;9.07;;;4.90;;
51987;SDS011;38003;52.012;4.346;2023-05-20T01:41:03;10.10;;;4.60;;
51987;SDS011;38003;52.012;4.346;2023-05-20T01:43:31;8.67;;;5.03;;
51987;SDS011;38003;52.012;4.346;2023-05-20T01:46:00;11.53;;;4.93;;
51987;SDS011;38003;52.012;4.346;2023-05-20T01:48:28;7.73;;;4.23;;
51987;SDS011;38003;52.012;4.346;2023-05-20T01:50:56;10.13;;;4.93;;
51987;SDS011;38003;52.012;4.346;2023-05-20T01:53:25;7.83;;;4.40;;
51987;SDS011;38003;52.012;4.346;2023-05-20T01:55:54;8.67;;;4.50;;
51987;SDS011;38003;52.012;4.346;2023-05-20T01:58:22;7.73;;;4.60;;
51987;SDS011;38003;52.012;4.346;2023-05-20T02:00:51;10.23;;;4.83;;
51987;SDS011;38003;52.012;4.346;2023-05-20T02:03:19;9.87;;;5.50;;
51987;SDS011;38003;52.012;4.346;2023-05-20T02:05:47;8.53;;;4.47;;
51987;SDS011;38003;52.012;4.346;2023-05-20T02:08:17;8.60;;;4.80;;
51987;SDS011;38003;52.012;4.346;2023-05-20T02:10:46;7.83;;;4.63;;
51987;SDS011;38003;52.012;4.346;2023-05-20T02:13:16;11.07;;;4.80;;
51987;SDS011;38003;52.012;4.346;2023-05-20T02:15:44;8.80;;;4.43;;
51987;SDS011;38003;52.012;4.346;2023-05-20T02:18:12;9.00;;;5.10;;
51987;SDS011;38003;52.012;4.346;2023-05-20T02:20:43;12.43;;;5.17;;
51987;SDS011;38003;52.012;4.346;2023-05-20T02:23:12;8.87;;;5.10;;
51987;SDS011;38003;52.012;4.346;2023-05-20T02:25:40;8.57;;;5.10;;
51987;SDS011;38003;52.012;4.346;2023-05-20T02:28:08;10.43;;;4.60;;
51987;SDS011;38003;52.012;4.346;2023-05-20T02:30:38;7.03;;;4.70;;
51987;SDS011;38003;52.012;4.346;2023-05-20T02:33:06;7.93;;;4.70;;
51987;SDS011;38003;52.012;4.346;2023-05-20T02:35:35;10.27;;;4.90;;
51987;SDS011;38003;52.012;4.346;2023-05-20T02:38:03;9.00;;;5.00;;
51987;SDS011;38003;52.012;4.346;2023-05-20T02:40:31;8.43;;;4.57;;
51987;SDS011;38003;52.012;4.346;2023-05-20T02:43:00;7.90;;;4.70;;
51987;SDS011;38003;52.012;4.346;2023-05-20T02:45:28;11.47;;;4.60;;
51987;SDS011;38003;52.012;4.346;2023-05-20T02:47:58;8.60;;;5.00;;
51987;SDS011;38003;52.012;4.346;2023-05-20T02:50:26;7.17;;;4.80;;
51987;SDS011;38003;52.012;4.346;2023-05-20T02:52:54;9.00;;;4.97;;
51987;SDS011;38003;52.012;4.346;2023-05-20T02:55:23;12.60;;;5.00;;
51987;SDS011;38003;52.012;4.346;2023-05-20T02:57:51;12.37;;;5.20;;
51987;SDS011;38003;52.012;4.346;2023-05-20T03:00:19;9.60;;;5.07;;
51987;SDS011;38003;52.012;4.346;2023-05-20T03:02:48;8.47;;;4.43;;
51987;SDS011;38003;52.012;4.346;2023-05-20T03:05:18;6.70;;;4.97;;
51987;SDS011;38003;52.012;4.346;2023-05-20T03:07:47;8.77;;;5.10;;
51987;SDS011;38003;52.012;4.346;2023-05-20T03:10:15;8.97;;;4.57;;
51987;SDS011;38003;52.012;4.346;2023-05-20T03:12:43;8.73;;;5.17;;
51987;SDS011;38003;52.012;4.346;2023-05-20T03:15:11;7.67;;;4.90;;
51987;SDS011;38003;52.012;4.346;2023-05-20T03:17:40;6.90;;;4.60;;
51987;SDS011;38003;52.012;4.346;2023-05-20T03:20:08;7.83;;;4.80;;
51987;SDS011;38003;52.012;4.346;2023-05-20T03:22:39;9.03;;;5.10;;
51987;SDS011;38003;52.012;4.346;2023-05-20T03:25:07;9.30;;;4.93;;
51987;SDS011;38003;52.012;4.346;2023-05-20T03:27:36;8.70;;;4.90;;
51987;SDS011;38003;52.012;4.346;2023-05-20T03:30:04;9.40;;;4.80;;
51987;SDS011;38003;52.012;4.346;2023-05-20T03:32:33;8.30;;;4.73;;
51987;SDS011;38003;52.012;4.346;2023-05-20T03:35:02;8.87;;;4.87;;
51987;SDS011;38003;52.012;4.346;2023-05-20T03:37:30;9.37;;;5.37;;
51987;SDS011;38003;52.012;4.346;2023-05-20T03:40:00;6.77;;;4.43;;
51987;SDS011;38003;52.012;4.346;2023-05-20T03:42:31;7.37;;;5.00;;
51987;SDS011;38003;52.012;4.346;2023-05-20T03:44:59;9.67;;;5.17;;
51987;SDS011;38003;52.012;4.346;2023-05-20T03:47:27;7.87;;;5.03;;
51987;SDS011;38003;52.012;4.346;2023-05-20T03:49:55;10.13;;;5.40;;
51987;SDS011;38003;52.012;4.346;2023-05-20T03:52:24;9.33;;;5.13;;
51987;SDS011;38003;52.012;4.346;2023-05-20T03:54:52;11.00;;;5.67;;
51987;SDS011;38003;52.012;4.346;2023-05-20T03:57:21;8.00;;;5.20;;
51987;SDS011;38003;52.012;4.346;2023-05-20T03:59:50;8.10;;;5.50;;
51987;SDS011;38003;52.012;4.346;2023-05-20T04:02:18;9.77;;;5.30;;
51987;SDS011;38003;52.012;4.346;2023-05-20T04:04:46;9.27;;;5.07;;
51987;SDS011;38003;52.012;4.346;2023-05-20T04:07:18;11.57;;;5.27;;
51987;SDS011;38003;52.012;4.346;2023-05-20T04:09:46;8.33;;;4.90;;
51987;SDS011;38003;52.012;4.346;2023-05-20T04:12:14;10.80;;;5.60;;
51987;SDS011;38003;52.012;4.346;2023-05-20T04:14:45;10.77;;;5.63;;
51987;SDS011;38003;52.012;4.346;2023-05-20T04:17:15;8.23;;;5.00;;
51987;SDS011;38003;52.012;4.346;2023-05-20T04:19:43;9.10;;;5.80;;
51987;SDS011;38003;52.012;4.346;2023-05-20T04:22:11;7.40;;;5.70;;
51987;SDS011;38003;52.012;4.346;2023-05-20T04:24:39;13.03;;;5.27;;
51987;SDS011;38003;52.012;4.346;2023-05-20T04:27:08;8.77;;;6.00;;
51987;SDS011;38003;52.012;4.346;2023-05-20T04:29:36;11.43;;;5.60;;
51987;SDS011;38003;52.012;4.346;2023-05-20T04:32:08;12.80;;;5.20;;
51987;SDS011;38003;52.012;4.346;2023-05-20T04:34:36;8.03;;;5.07;;
51987;SDS011;38003;52.012;4.346;2023-05-20T04:37:05;10.53;;;4.97;;
51987;SDS011;38003;52.012;4.346;2023-05-20T04:39:34;8.87;;;5.47;;
51987;SDS011;38003;52.012;4.346;2023-05-20T04:42:04;7.83;;;5.67;;
51987;SDS011;38003;52.012;4.346;2023-05-20T04:44:32;12.63;;;5.73;;
51987;SDS011;38003;52.012;4.346;2023-05-20T04:47:00;9.17;;;5.20;;
51987;SDS011;38003;52.012;4.346;2023-05-20T04:49:31;8.97;;;5.80;;
51987;SDS011;38003;52.012;4.346;2023-05-20T04:51:59;12.20;;;5.67;;
51987;SDS011;38003;52.012;4.346;2023-05-20T04:54:28;9.63;;;5.57;;
51987;SDS011;38003;52.012;4.346;2023-05-20T04:56:56;10.43;;;6.10;;
51987;SDS011;38003;52.012;4.346;2023-05-20T04:59:24;8.77;;;6.23;;
51987;SDS011;38003;52.012;4.346;2023-05-20T05:01:52;9.47;;;5.50;;
51987;SDS011;38003;52.012;4.346;2023-05-20T05:04:21;10.17;;;5.47;;
51987;SDS011;38003;52.012;4.346;2023-05-20T05:06:50;9.83;;;5.97;;
51987;SDS011;38003;52.012;4.346;2023-05-20T05:09:18;8.27;;;5.63;;
51987;SDS011;38003;52.012;4.346;2023-05-20T05:11:47;10.70;;;6.17;;
51987;SDS011;38003;52.012;4.346;2023-05-20T05:14:16;9.47;;;5.77;;
51987;SDS011;38003;52.012;4.346;2023-05-20T05:16:44;10.50;;;6.07;;
51987;SDS011;38003;52.012;4.346;2023-05-20T05:19:12;9.67;;;5.37;;
51987;SDS011;38003;52.012;4.346;2023-05-20T05:21:40;7.97;;;5.57;;
51987;SDS011;38003;52.012;4.346;2023-05-20T05:24:10;7.80;;;5.17;;
51987;SDS011;38003;52.012;4.346;2023-05-20T05:26:38;9.67;;;5.03;;
51987;SDS011;38003;52.012;4.346;2023-05-20T05:29:06;8.73;;;5.53;;
51987;SDS011;38003;52.012;4.346;2023-05-20T05:31:37;10.93;;;5.80;;
51987;SDS011;38003;52.012;4.346;2023-05-20T05:34:05;9.57;;;5.50;;
51987;SDS011;38003;52.012;4.346;2023-05-20T05:36:33;10.83;;;6.23;;
51987;SDS011;38003;52.012;4.346;2023-05-20T05:39:01;10.23;;;5.60;;
51987;SDS011;38003;52.012;4.346;2023-05-20T05:41:31;9.67;;;5.33;;
51987;SDS011;38003;52.012;4.346;2023-05-20T05:44:00;11.43;;;5.70;;
51987;SDS011;38003;52.012;4.346;2023-05-20T05:46:28;9.67;;;5.13;;
51987;SDS011;38003;52.012;4.346;2023-05-20T05:48:56;9.73;;;6.23;;
51987;SDS011;38003;52.012;4.346;2023-05-20T05:51:26;9.70;;;5.40;;
51987;SDS011;38003;52.012;4.346;2023-05-20T05:53:56;8.87;;;5.40;;
51987;SDS011;38003;52.012;4.346;2023-05-20T05:56:24;9.07;;;5.63;;
51987;SDS011;38003;52.012;4.346;2023-05-20T05:58:54;10.63;;;5.47;;
51987;SDS011;38003;52.012;4.346;2023-05-20T06:01:22;6.30;;;4.90;;
51987;SDS011;38003;52.012;4.346;2023-05-20T06:03:50;8.17;;;5.97;;
51987;SDS011;38003;52.012;4.346;2023-05-20T06:06:19;8.80;;;5.30;;
51987;SDS011;38003;52.012;4.346;2023-05-20T06:08:47;8.17;;;5.27;;
51987;SDS011;38003;52.012;4.346;2023-05-20T06:11:15;8.23;;;5.47;;
51987;SDS011;38003;52.012;4.346;2023-05-20T06:13:43;10.17;;;5.87;;
51987;SDS011;38003;52.012;4.346;2023-05-20T06:16:13;8.37;;;5.60;;
51987;SDS011;38003;52.012;4.346;2023-05-20T06:18:41;8.67;;;5.30;;
51987;SDS011;38003;52.012;4.346;2023-05-20T06:21:10;9.33;;;6.37;;
51987;SDS011;38003;52.012;4.346;2023-05-20T06:23:38;10.03;;;5.50;;
51987;SDS011;38003;52.012;4.346;2023-05-20T06:26:06;11.97;;;5.93;;
51987;SDS011;38003;52.012;4.346;2023-05-20T06:28:34;7.73;;;5.43;;
51987;SDS011;38003;52.012;4.346;2023-05-20T06:31:02;10.27;;;6.00;;
51987;SDS011;38003;52.012;4.346;2023-05-20T06:33:32;10.40;;;5.70;;
51987;SDS011;38003;52.012;4.346;2023-05-20T06:36:01;9.20;;;5.53;;
51987;SDS011;38003;52.012;4.346;2023-05-20T06:38:30;9.17;;;5.77;;
51987;SDS011;38003;52.012;4.346;2023-05-20T06:40:59;11.57;;;6.40;;
51987;SDS011;38003;52.012;4.346;2023-05-20T06:43:27;6.27;;;5.50;;
51987;SDS011;38003;52.012;4.346;2023-05-20T06:45:55;7.83;;;5.40;;
51987;SDS011;38003;52.012;4.346;2023-05-20T06:48:24;10.53;;;5.70;;
51987;SDS011;38003;52.012;4.346;2023-05-20T06:50:53;10.50;;;5.60;;
51987;SDS011;38003;52.012;4.346;2023-05-20T06:53:22;10.80;;;5.77;;
51987;SDS011;38003;52.012;4.346;2023-05-20T06:55:51;7.97;;;5.30;;
51987;SDS011;38003;52.012;4.346;2023-05-20T06:58:20;8.20;;;5.30;;
51987;SDS011;38003;52.012;4.346;2023-05-20T07:00:49;8.33;;;5.80;;
51987;SDS011;38003;52.012;4.346;2023-05-20T07:03:17;7.17;;;5.30;;
51987;SDS011;38003;52.012;4.346;2023-05-20T07:05:45;8.07;;;5.07;;
51987;SDS011;38003;52.012;4.346;2023-05-20T07:08:15;7.70;;;5.10;;
51987;SDS011;38003;52.012;4.346;2023-05-20T07:10:43;6.80;;;4.93;;
51987;SDS011;38003;52.012;4.346;2023-05-20T07:13:12;8.27;;;4.50;;
51987;SDS011;38003;52.012;4.346;2023-05-20T07:15:40;7.37;;;5.10;;
51987;SDS011;38003;52.012;4.346;2023-05-20T07:18:08;10.03;;;4.80;;
51987;SDS011;38003;52.012;4.346;2023-05-20T07:20:37;7.33;;;4.07;;
51987;SDS011;38003;52.012;4.346;2023-05-20T07:23:05;7.03;;;4.27;;
51987;SDS011;38003;52.012;4.346;2023-05-20T07:25:34;5.87;;;4.17;;
51987;SDS011;38003;52.012;4.346;2023-05-20T07:28:03;6.77;;;3.50;;
51987;SDS011;38003;52.012;4.346;2023-05-20T07:30:31;7.87;;;4.20;;
51987;SDS011;38003;52.012;4.346;2023-05-20T07:32:59;7.50;;;3.73;;
51987;SDS011;38003;52.012;4.346;2023-05-20T07:35:27;9.33;;;4.43;;
51987;SDS011;38003;52.012;4.346;2023-05-20T07:37:56;5.40;;;4.00;;
51987;SDS011;38003;52.012;4.346;2023-05-20T07:40:24;8.10;;;4.23;;
51987;SDS011;38003;52.012;4.346;2023-05-20T07:42:53;5.90;;;3.50;;
51987;SDS011;38003;52.012;4.346;2023-05-20T07:45:22;6.47;;;4.17;;
51987;SDS011;38003;52.012;4.346;2023-05-20T07:47:50;6.80;;;4.10;;
51987;SDS011;38003;52.012;4.346;2023-05-20T07:50:18;5.17;;;3.90;;
51987;SDS011;38003;52.012;4.346;2023-05-20T07:52:47;6.27;;;3.80;;
51987;SDS011;38003;52.012;4.346;2023-05-20T07:55:22;8.17;;;4.10;;
51987;SDS011;38003;52.012;4.346;2023-05-20T07:57:50;7.67;;;4.00;;
51987;SDS011;38003;52.012;4.346;2023-05-20T08:00:20;5.43;;;3.63;;
51987;SDS011;38003;52.012;4.346;2023-05-20T08:02:48;6.07;;;3.47;;
51987;SDS011;38003;52.012;4.346;2023-05-20T08:05:17;5.07;;;3.40;;
51987;SDS011;38003;52.012;4.346;2023-05-20T08:07:45;5.80;;;3.33;;
51987;SDS011;38003;52.012;4.346;2023-05-20T08:10:13;3.90;;;3.23;;
51987;SDS011;38003;52.012;4.346;2023-05-20T08:12:42;6.20;;;3.50;;
51987;SDS011;38003;52.012;4.346;2023-05-20T08:15:10;4.07;;;3.10;;
51987;SDS011;38003;52.012;4.346;2023-05-20T08:17:39;4.90;;;3.40;;
51987;SDS011;38003;52.012;4.346;2023-05-20T08:20:08;5.53;;;3.33;;
51987;SDS011;38003;52.012;4.346;2023-05-20T08:22:37;4.97;;;3.67;;
51987;SDS011;38003;52.012;4.346;2023-05-20T08:25:07;6.70;;;3.47;;
51987;SDS011;38003;52.012;4.346;2023-05-20T08:27:35;4.73;;;3.63;;
51987;SDS011;38003;52.012;4.346;2023-05-20T08:30:04;3.87;;;3.27;;
51987;SDS011;38003;52.012;4.346;2023-05-20T08:32:33;6.07;;;3.23;;
51987;SDS011;38003;52.012;4.346;2023-05-20T08:35:03;5.07;;;3.00;;
51987;SDS011;38003;52.012;4.346;2023-05-20T08:37:31;4.90;;;3.80;;
51987;SDS011;38003;52.012;4.346;2023-05-20T08:40:00;5.43;;;2.90;;
51987;SDS011;38003;52.012;4.346;2023-05-20T08:42:28;5.63;;;2.87;;
51987;SDS011;38003;52.012;4.346;2023-05-20T08:44:56;4.70;;;2.90;;
51987;SDS011;38003;52.012;4.346;2023-05-20T08:47:25;3.97;;;3.03;;
51987;SDS011;38003;52.012;4.346;2023-05-20T08:49:54;4.03;;;3.10;;
51987;SDS011;38003;52.012;4.346;2023-05-20T08:52:23;4.47;;;2.60;;
51987;SDS011;38003;52.012;4.346;2023-05-20T08:54:52;4.73;;;2.50;;
51987;SDS011;38003;52.012;4.346;2023-05-20T08:57:21;4.47;;;2.60;;
51987;SDS011;38003;52.012;4.346;2023-05-20T08:59:49;5.25;;;2.80;;
51987;SDS011;38003;52.012;4.346;2023-05-20T09:02:17;4.63;;;2.90;;
51987;SDS011;38003;52.012;4.346;2023-05-20T09:04:46;3.50;;;2.50;;
51987;SDS011;38003;52.012;4.346;2023-05-20T09:07:14;3.73;;;2.70;;
51987;SDS011;38003;52.012;4.346;2023-05-20T09:09:54;3.10;;;2.40;;
51987;SDS011;38003;52.012;4.346;2023-05-20T09:12:22;4.40;;;2.20;;
51987;SDS011;38003;52.012;4.346;2023-05-20T09:14:50;5.30;;;3.20;;
51987;SDS011;38003;52.012;4.346;2023-05-20T09:17:19;4.37;;;2.50;;
51987;SDS011;38003;52.012;4.346;2023-05-20T09:19:48;5.33;;;2.50;;
51987;SDS011;38003;52.012;4.346;2023-05-20T09:22:20;4.95;;;2.35;;
51987;SDS011;38003;52.012;4.346;2023-05-20T09:24:49;5.40;;;2.40;;
51987;SDS011;38003;52.012;4.346;2023-05-20T09:27:18;5.67;;;2.70;;
51987;SDS011;38003;52.012;4.346;2023-05-20T09:29:47;4.47;;;2.42;;
51987;SDS011;38003;52.012;4.346;2023-05-20T09:32:15;3.95;;;2.40;;
51987;SDS011;38003;52.012;4.346;2023-05-20T09:34:45;4.50;;;2.27;;
51987;SDS011;38003;52.012;4.346;2023-05-20T09:37:15;3.28;;;2.22;;
51987;SDS011;38003;52.012;4.346;2023-05-20T09:39:52;3.60;;;2.20;;
51987;SDS011;38003;52.012;4.346;2023-05-20T09:42:25;3.13;;;2.25;;
51987;SDS011;38003;52.012;4.346;2023-05-20T09:44:54;3.92;;;2.13;;
51987;SDS011;38003;52.012;4.346;2023-05-20T09:47:24;6.93;;;2.40;;
51987;SDS011;38003;52.012;4.346;2023-05-20T09:49:52;3.45;;;2.38;;
51987;SDS011;38003;52.012;4.346;2023-05-20T09:52:21;3.15;;;2.20;;
51987;SDS011;38003;52.012;4.346;2023-05-20T09:54:52;3.60;;;1.90;;
51987;SDS011;38003;52.012;4.346;2023-05-20T09:57:21;4.40;;;2.17;;
51987;SDS011;38003;52.012;4.346;2023-05-20T09:59:51;6.87;;;2.33;;
51987;SDS011;38003;52.012;4.346;2023-05-20T10:02:19;2.23;;;1.80;;
51987;SDS011;38003;52.012;4.346;2023-05-20T10:04:48;2.03;;;1.60;;
51987;SDS011;38003;52.012;4.346;2023-05-20T10:07:25;5.22;;;2.03;;
51987;SDS011;38003;52.012;4.346;2023-05-20T10:10:10;5.40;;;2.70;;
51987;SDS011;38003;52.012;4.346;2023-05-20T10:12:44;5.10;;;2.17;;
51987;SDS011;38003;52.012;4.346;2023-05-20T10:15:22;4.80;;;2.28;;
51987;SDS011;38003;52.012;4.346;2023-05-20T10:17:54;4.88;;;2.17;;
51987;SDS011;38003;52.012;4.346;2023-05-20T10:20:27;3.57;;;2.20;;
51987;SDS011;38003;52.012;4.346;2023-05-20T10:22:57;2.33;;;1.88;;
51987;SDS011;38003;52.012;4.346;2023-05-20T10:25:25;3.17;;;2.03;;
51987;SDS011;38003;52.012;4.346;2023-05-20T10:28:03;2.70;;;1.90;;
51987;SDS011;38003;52.012;4.346;2023-05-20T10:30:34;4.38;;;2.22;;
51987;SDS011;38003;52.012;4.346;2023-05-20T10:33:04;4.47;;;1.80;;
51987;SDS011;38003;52.012;4.346;2023-05-20T10:35:33;2.72;;;1.88;;
51987;SDS011;38003;52.012;4.346;2023-05-20T10:38:09;2.17;;;1.67;;
51987;SDS011;38003;52.012;4.346;2023-05-20T10:40:37;5.68;;;1.80;;
51987;SDS011;38003;52.012;4.346;2023-05-20T10:43:09;3.45;;;1.95;;
51987;SDS011;38003;52.012;4.346;2023-05-20T10:45:49;5.70;;;1.80;;
51987;SDS011;38003;52.012;4.346;2023-05-20T10:48:22;3.08;;;1.77;;
51987;SDS011;38003;52.012;4.346;2023-05-20T10:50:53;3.83;;;1.73;;
51987;SDS011;38003;52.012;4.346;2023-05-20T10:53:22;3.28;;;1.67;;
51987;SDS011;38003;52.012;4.346;2023-05-20T10:55:59;2.90;;;1.83;;
51987;SDS011;38003;52.012;4.346;2023-05-20T10:58:35;3.03;;;1.73;;
51987;SDS011;38003;52.012;4.346;2023-05-20T11:01:04;3.72;;;1.77;;
51987;SDS011;38003;52.012;4.346;2023-05-20T11:03:33;6.03;;;2.03;;
51987;SDS011;38003;52.012;4.346;2023-05-20T11:06:09;4.22;;;2.33;;
51987;SDS011;38003;52.012;4.346;2023-05-20T11:08:37;3.83;;;1.70;;
51987;SDS011;38003;52.012;4.346;2023-05-20T11:11:06;1.88;;;1.38;;
51987;SDS011;38003;52.012;4.346;2023-05-20T11:13:34;4.38;;;2.55;;
51987;SDS011;38003;52.012;4.346;2023-05-20T11:16:02;4.45;;;1.92;;
51987;SDS011;38003;52.012;4.346;2023-05-20T11:18:33;3.60;;;1.92;;
51987;SDS011;38003;52.012;4.346;2023-05-20T11:21:01;3.63;;;2.00;;
51987;SDS011;38003;52.012;4.346;2023-05-20T11:23:30;4.10;;;2.30;;
51987;SDS011;38003;52.012;4.346;2023-05-20T11:25:58;7.70;;;1.70;;
51987;SDS011;38003;52.012;4.346;2023-05-20T11:28:28;2.78;;;1.80;;
51987;SDS011;38003;52.012;4.346;2023-05-20T11:30:58;4.35;;;2.10;;
51987;SDS011;38003;52.012;4.346;2023-05-20T11:33:27;2.25;;;1.88;;
51987;SDS011;38003;52.012;4.346;2023-05-20T11:35:58;3.58;;;1.90;;
51987;SDS011;38003;52.012;4.346;2023-05-20T11:38:26;3.05;;;1.75;;
51987;SDS011;38003;52.012;4.346;2023-05-20T11:40:54;3.70;;;1.70;;
51987;SDS011;38003;52.012;4.346;2023-05-20T11:43:23;3.15;;;1.95;;
51987;SDS011;38003;52.012;4.346;2023-05-20T11:45:52;1.95;;;1.70;;
51987;SDS011;38003;52.012;4.346;2023-05-20T11:48:20;2.55;;;1.60;;
51987;SDS011;38003;52.012;4.346;2023-05-20T11:50:49;3.33;;;1.85;;
51987;SDS011;38003;52.012;4.346;2023-05-20T11:53:19;3.00;;;1.63;;
51987;SDS011;38003;52.012;4.346;2023-05-20T11:55:47;2.70;;;2.00;;
51987;SDS011;38003;52.012;4.346;2023-05-20T11:58:17;3.85;;;1.80;;
51987;SDS011;38003;52.012;4.346;2023-05-20T12:00:46;2.92;;;1.80;;
51987;SDS011;38003;52.012;4.346;2023-05-20T12:03:24;3.63;;;1.70;;
51987;SDS011;38003;52.012;4.346;2023-05-20T12:05:53;2.92;;;1.70;;
51987;SDS011;38003;52.012;4.346;2023-05-20T12:08:23;3.70;;;1.60;;
51987;SDS011;38003;52.012;4.346;2023-05-20T12:10:51;2.83;;;1.63;;
51987;SDS011;38003;52.012;4.346;2023-05-20T12:13:19;4.22;;;1.70;;
51987;SDS011;38003;52.012;4.346;2023-05-20T12:15:48;4.38;;;2.22;;
51987;SDS011;38003;52.012;4.346;2023-05-20T12:18:17;2.25;;;1.60;;
51987;SDS011;38003;52.012;4.346;2023-05-20T12:20:45;3.13;;;1.63;;
51987;SDS011;38003;52.012;4.346;2023-05-20T12:23:13;5.07;;;1.92;;
51987;SDS011;38003;52.012;4.346;2023-05-20T12:25:43;2.53;;;1.75;;
51987;SDS011;38003;52.012;4.346;2023-05-20T12:28:12;4.32;;;1.98;;
51987;SDS011;38003;52.012;4.346;2023-05-20T12:30:41;3.15;;;1.80;;
51987;SDS011;38003;52.012;4.346;2023-05-20T12:33:09;4.28;;;1.83;;
51987;SDS011;38003;52.012;4.346;2023-05-20T12:35:38;3.50;;;1.77;;
51987;SDS011;38003;52.012;4.346;2023-05-20T12:38:06;3.35;;;1.70;;
51987;SDS011;38003;52.012;4.346;2023-05-20T12:40:35;4.20;;;1.90;;
51987;SDS011;38003;52.012;4.346;2023-05-20T12:43:05;3.22;;;2.03;;
51987;SDS011;38003;52.012;4.346;2023-05-20T12:45:33;2.65;;;1.85;;
51987;SDS011;38003;52.012;4.346;2023-05-20T12:48:02;4.95;;;1.95;;
51987;SDS011;38003;52.012;4.346;2023-05-20T12:50:32;6.57;;;1.98;;
51987;SDS011;38003;52.012;4.346;2023-05-20T12:53:01;4.05;;;1.90;;
51987;SDS011;38003;52.012;4.346;2023-05-20T12:55:29;2.92;;;1.92;;
51987;SDS011;38003;52.012;4.346;2023-05-20T12:57:57;2.50;;;1.73;;
51987;SDS011;38003;52.012;4.346;2023-05-20T13:00:27;3.05;;;1.80;;
51987;SDS011;38003;52.012;4.346;2023-05-20T13:02:55;4.55;;;1.80;;
51987;SDS011;38003;52.012;4.346;2023-05-20T13:05:23;5.95;;;1.70;;
51987;SDS011;38003;52.012;4.346;2023-05-20T13:07:52;4.03;;;1.65;;
51987;SDS011;38003;52.012;4.346;2023-05-20T13:10:20;3.67;;;2.03;;
51987;SDS011;38003;52.012;4.346;2023-05-20T13:12:48;4.95;;;1.73;;
51987;SDS011;38003;52.012;4.346;2023-05-20T13:15:16;4.05;;;1.80;;
51987;SDS011;38003;52.012;4.346;2023-05-20T13:17:46;3.10;;;1.90;;
51987;SDS011;38003;52.012;4.346;2023-05-20T13:20:14;2.83;;;1.80;;
51987;SDS011;38003;52.012;4.346;2023-05-20T13:22:45;3.40;;;1.88;;
51987;SDS011;38003;52.012;4.346;2023-05-20T13:25:15;2.05;;;1.67;;
51987;SDS011;38003;52.012;4.346;2023-05-20T13:27:43;3.50;;;1.80;;
51987;SDS011;38003;52.012;4.346;2023-05-20T13:30:11;2.05;;;1.40;;
51987;SDS011;38003;52.012;4.346;2023-05-20T13:32:40;5.03;;;1.80;;
51987;SDS011;38003;52.012;4.346;2023-05-20T13:35:09;4.15;;;2.10;;
51987;SDS011;38003;52.012;4.346;2023-05-20T13:37:38;4.25;;;1.70;;
51987;SDS011;38003;52.012;4.346;2023-05-20T13:40:07;4.03;;;1.85;;
51987;SDS011;38003;52.012;4.346;2023-05-20T13:42:35;6.88;;;2.13;;
51987;SDS011;38003;52.012;4.346;2023-05-20T13:45:04;2.45;;;1.98;;
51987;SDS011;38003;52.012;4.346;2023-05-20T13:47:32;3.17;;;2.17;;
51987;SDS011;38003;52.012;4.346;2023-05-20T13:50:01;5.97;;;2.17;;
51987;SDS011;38003;52.012;4.346;2023-05-20T13:52:30;2.92;;;1.80;;
51987;SDS011;38003;52.012;4.346;2023-05-20T13:54:58;5.10;;;1.88;;
51987;SDS011;38003;52.012;4.346;2023-05-20T13:57:27;3.72;;;2.13;;
51987;SDS011;38003;52.012;4.346;2023-05-20T13:59:55;2.78;;;1.70;;
51987;SDS011;38003;52.012;4.346;2023-05-20T14:02:23;3.88;;;1.90;;
51987;SDS011;38003;52.012;4.346;2023-05-20T14:04:52;2.83;;;1.90;;
51987;SDS011;38003;52.012;4.346;2023-05-20T14:07:20;2.85;;;2.00;;
51987;SDS011;38003;52.012;4.346;2023-05-20T14:09:49;3.70;;;1.80;;
51987;SDS011;38003;52.012;4.346;2023-05-20T14:12:18;3.90;;;1.77;;
51987;SDS011;38003;52.012;4.346;2023-05-20T14:14:48;3.38;;;1.65;;
51987;SDS011;38003;52.012;4.346;2023-05-20T14:17:16;3.90;;;1.77;;
51987;SDS011;38003;52.012;4.346;2023-05-20T14:19:44;4.88;;;1.75;;
51987;SDS011;38003;52.012;4.346;2023-05-20T14:22:12;3.90;;;2.00;;
51987;SDS011;38003;52.012;4.346;2023-05-20T14:24:41;3.53;;;1.70;;
51987;SDS011;38003;52.012;4.346;2023-05-20T14:27:10;3.47;;;1.65;;
51987;SDS011;38003;52.012;4.346;2023-05-20T14:29:39;1.95;;;1.73;;
51987;SDS011;38003;52.012;4.346;2023-05-20T14:32:07;3.15;;;1.70;;
51987;SDS011;38003;52.012;4.346;2023-05-20T14:34:36;1.77;;;1.60;;
51987;SDS011;38003;52.012;4.346;2023-05-20T14:37:05;4.82;;;2.00;;
51987;SDS011;38003;52.012;4.346;2023-05-20T14:39:35;3.67;;;1.80;;
51987;SDS011;38003;52.012;4.346;2023-05-20T14:42:03;3.25;;;2.25;;
51987;SDS011;38003;52.012;4.346;2023-05-20T14:44:33;3.88;;;1.90;;
51987;SDS011;38003;52.012;4.346;2023-05-20T14:47:01;3.55;;;1.70;;
51987;SDS011;38003;52.012;4.346;2023-05-20T14:49:30;5.03;;;1.75;;
51987;SDS011;38003;52.012;4.346;2023-05-20T14:51:58;4.07;;;2.13;;
51987;SDS011;38003;52.012;4.346;2023-05-20T14:54:27;3.88;;;1.70;;
51987;SDS011;38003;52.012;4.346;2023-05-20T14:56:55;3.17;;;1.70;;